Malaysia Virtual Airlines Airport Information Service

Zurich airport

ICAO: LSZH Country: Switzerland
Latitude: 47.4526 Longitude: 8.5605
Latest Arrival : MC10 (WMKK-LSZH) Latest Departure : MHJUMP (LSZH-WMKK)


WX CaptureLIVE
Data provided by noaa.gov | Fetched at 21:00:49

METAR : LSZH 122050Z 36003KT 9999 FEW060 07/06 Q1011 NOSIG

TAF : LSZH 122025Z 1221/1403 VRB02KT 9999 SCT030 BKN050 TX14/1314Z TN05/1304Z PROB40 TEMPO 1306/1312 SHRA BKN030TCU BECMG 1307/1310 25008KT PROB30 TEMPO 1312/1324 SHRA SCT030TCU


Runway Data for LSZH
Data provided by openaviationdata.com

Runway ID Mag Var Hdg Length Elevation Surface ILS Freq ILS Id ILS Slope
10 1 96° 8553 ft 1416 ft Concrete -- -- --
14 1 138° 10984 ft 1416 ft Concrete 108.3 IKL 3
16 1 155° 12287 ft 1416 ft Concrete 110.5 IZH 3
28 1 276° 8553 ft 1416 ft Concrete 109.75 IZW 3
32 1 318° 10984 ft 1416 ft Concrete -- -- --
34 1 335° 12287 ft 1416 ft Concrete 110.75 IZS 3

Zurich airport, Switzerland
Use only for reference purposes



Not for navigational purposes.